sensor_id;sensor_type;location;lat;lon;timestamp;pressure;altitude;pressure_sealevel;temperature;humidity
5988;BME280;3021;51.000;6.980;2022-12-16T00:02:00;65539.19;;;-6.93;100.00
5988;BME280;3021;51.000;6.980;2022-12-16T00:04:25;65530.88;;;-7.06;100.00
5988;BME280;3021;51.000;6.980;2022-12-16T00:06:50;65528.38;;;-7.03;100.00
5988;BME280;3021;51.000;6.980;2022-12-16T00:09:16;65528.56;;;-7.01;100.00
5988;BME280;3021;51.000;6.980;2022-12-16T00:11:41;65531.97;;;-6.98;100.00
5988;BME280;3021;51.000;6.980;2022-12-16T00:14:06;65522.88;;;-7.06;100.00
5988;BME280;3021;51.000;6.980;2022-12-16T00:16:32;65510.94;;;-7.17;100.00
5988;BME280;3021;51.000;6.980;2022-12-16T00:18:57;65501.09;;;-7.28;100.00
5988;BME280;3021;51.000;6.980;2022-12-16T00:21:22;65499.22;;;-7.32;100.00
5988;BME280;3021;51.000;6.980;2022-12-16T00:23:53;65493.16;;;-7.35;100.00
5988;BME280;3021;51.000;6.980;2022-12-16T00:26:18;65493.53;;;-7.37;100.00
5988;BME280;3021;51.000;6.980;2022-12-16T00:28:44;65487.84;;;-7.42;100.00
5988;BME280;3021;51.000;6.980;2022-12-16T00:31:09;65484.44;;;-7.45;100.00
5988;BME280;3021;51.000;6.980;2022-12-16T00:33:35;65472.28;;;-7.52;100.00
5988;BME280;3021;51.000;6.980;2022-12-16T00:36:00;65479.13;;;-7.45;100.00
5988;BME280;3021;51.000;6.980;2022-12-16T00:38:26;65486.69;;;-7.36;100.00
5988;BME280;3021;51.000;6.980;2022-12-16T00:40:51;65494.28;;;-7.34;100.00
5988;BME280;3021;51.000;6.980;2022-12-16T00:43:16;65480.44;;;-7.42;100.00
5988;BME280;3021;51.000;6.980;2022-12-16T00:45:42;65486.91;;;-7.41;100.00
5988;BME280;3021;51.000;6.980;2022-12-16T00:48:07;65489.16;;;-7.39;100.00
5988;BME280;3021;51.000;6.980;2022-12-16T00:50:33;65488.78;;;-7.37;100.00
5988;BME280;3021;51.000;6.980;2022-12-16T00:52:59;65494.88;;;-7.41;100.00
5988;BME280;3021;51.000;6.980;2022-12-16T00:55:24;65470.78;;;-7.51;100.00
5988;BME280;3021;51.000;6.980;2022-12-16T00:57:50;65468.91;;;-7.62;100.00
5988;BME280;3021;51.000;6.980;2022-12-16T01:00:16;65461.72;;;-7.66;100.00
5988;BME280;3021;51.000;6.980;2022-12-16T01:02:43;65449.38;;;-7.75;100.00
5988;BME280;3021;51.000;6.980;2022-12-16T01:05:11;65444.84;;;-7.79;100.00
5988;BME280;3021;51.000;6.980;2022-12-16T01:07:37;65459.63;;;-7.66;100.00
5988;BME280;3021;51.000;6.980;2022-12-16T01:10:03;65469.09;;;-7.59;100.00
5988;BME280;3021;51.000;6.980;2022-12-16T01:12:29;65461.50;;;-7.61;100.00
5988;BME280;3021;51.000;6.980;2022-12-16T01:14:54;65489.69;;;-7.70;100.00
5988;BME280;3021;51.000;6.980;2022-12-16T01:17:20;65445.59;;;-7.76;100.00
5988;BME280;3021;51.000;6.980;2022-12-16T01:19:45;65439.91;;;-7.81;100.00
5988;BME280;3021;51.000;6.980;2022-12-16T01:22:10;65440.88;;;-7.83;100.00
5988;BME280;3021;51.000;6.980;2022-12-16T01:24:36;65436.88;;;-7.86;100.00
5988;BME280;3021;51.000;6.980;2022-12-16T01:27:02;65433.31;;;-7.92;100.00
5988;BME280;3021;51.000;6.980;2022-12-16T01:29:27;65434.63;;;-7.88;100.00
5988;BME280;3021;51.000;6.980;2022-12-16T01:31:52;65433.50;;;-7.89;100.00
5988;BME280;3021;51.000;6.980;2022-12-16T01:34:18;65430.25;;;-7.90;100.00
5988;BME280;3021;51.000;6.980;2022-12-16T01:36:43;65435.00;;;-7.90;100.00
5988;BME280;3021;51.000;6.980;2022-12-16T01:39:09;65430.63;;;-7.92;100.00
5988;BME280;3021;51.000;6.980;2022-12-16T01:41:35;65432.19;;;-7.93;100.00
5988;BME280;3021;51.000;6.980;2022-12-16T01:44:19;65435.94;;;-7.85;100.00
5988;BME280;3021;51.000;6.980;2022-12-16T01:46:50;65432.94;;;-7.90;100.00
5988;BME280;3021;51.000;6.980;2022-12-16T01:52:02;65433.66;;;-7.87;100.00
5988;BME280;3021;51.000;6.980;2022-12-16T01:54:32;65442.59;;;-7.81;100.00
5988;BME280;3021;51.000;6.980;2022-12-16T01:57:05;65449.38;;;-7.75;100.00
5988;BME280;3021;51.000;6.980;2022-12-16T01:59:37;65442.78;;;-7.86;100.00
5988;BME280;3021;51.000;6.980;2022-12-16T02:02:03;65445.44;;;-7.78;100.00
5988;BME280;3021;51.000;6.980;2022-12-16T02:04:29;65443.13;;;-7.81;100.00
5988;BME280;3021;51.000;6.980;2022-12-16T02:06:54;65434.22;;;-7.86;100.00
5988;BME280;3021;51.000;6.980;2022-12-16T02:09:20;65430.63;;;-7.92;100.00
5988;BME280;3021;51.000;6.980;2022-12-16T02:12:03;65420.44;;;-8.01;100.00
5988;BME280;3021;51.000;6.980;2022-12-16T02:17:37;65407.19;;;-8.16;100.00
5988;BME280;3021;51.000;6.980;2022-12-16T02:28:46;65414.56;;;-8.09;100.00
5988;BME280;3021;51.000;6.980;2022-12-16T02:37:11;65422.13;;;-8.00;100.00
5988;BME280;3021;51.000;6.980;2022-12-16T02:39:42;65414.19;;;-8.07;100.00
5988;BME280;3021;51.000;6.980;2022-12-16T02:42:20;65422.13;;;-8.00;100.00
5988;BME280;3021;51.000;6.980;2022-12-16T02:45:03;65417.03;;;-8.04;100.00
5988;BME280;3021;51.000;6.980;2022-12-16T02:47:31;65412.81;;;-8.03;100.00
5988;BME280;3021;51.000;6.980;2022-12-16T02:49:57;65398.28;;;-8.21;100.00
5988;BME280;3021;51.000;6.980;2022-12-16T02:52:25;65394.88;;;-8.24;100.00
5988;BME280;3021;51.000;6.980;2022-12-16T02:55:01;65396.00;;;-8.23;100.00
5988;BME280;3021;51.000;6.980;2022-12-16T03:00:14;65384.47;;;-8.36;100.00
5988;BME280;3021;51.000;6.980;2022-12-16T03:05:32;65382.75;;;-8.38;100.00
5988;BME280;3021;51.000;6.980;2022-12-16T03:08:01;65384.66;;;-8.34;100.00
5988;BME280;3021;51.000;6.980;2022-12-16T03:10:33;65385.03;;;-8.36;100.00
5988;BME280;3021;51.000;6.980;2022-12-16T03:13:00;65385.63;;;-8.42;100.00
5988;BME280;3021;51.000;6.980;2022-12-16T03:15:29;65368.78;;;-8.48;100.00
5988;BME280;3021;51.000;6.980;2022-12-16T03:17:56;65376.50;;;-8.43;100.00
5988;BME280;3021;51.000;6.980;2022-12-16T03:20:39;65372.56;;;-8.47;100.00
5988;BME280;3021;51.000;6.980;2022-12-16T03:23:10;65364.97;;;-8.49;100.00
5988;BME280;3021;51.000;6.980;2022-12-16T03:25:40;65365.94;;;-8.51;100.00
5988;BME280;3021;51.000;6.980;2022-12-16T03:30:44;65381.81;;;-8.36;100.00
5988;BME280;3021;51.000;6.980;2022-12-16T03:33:26;65385.03;;;-8.36;100.00
5988;BME280;3021;51.000;6.980;2022-12-16T03:36:06;65390.53;;;-8.33;100.00
5988;BME280;3021;51.000;6.980;2022-12-16T03:38:35;65390.88;;;-8.28;100.00
5988;BME280;3021;51.000;6.980;2022-12-16T03:41:02;65398.09;;;-8.24;100.00
5988;BME280;3021;51.000;6.980;2022-12-16T03:43:28;65410.97;;;-8.14;100.00
5988;BME280;3021;51.000;6.980;2022-12-16T03:45:57;65426.69;;;-7.95;100.00
5988;BME280;3021;51.000;6.980;2022-12-16T03:48:25;65433.13;;;-7.94;100.00
5988;BME280;3021;51.000;6.980;2022-12-16T03:50:50;65433.28;;;-7.85;100.00
5988;BME280;3021;51.000;6.980;2022-12-16T03:53:16;65440.47;;;-7.81;100.00
5988;BME280;3021;51.000;6.980;2022-12-16T03:55:42;65445.81;;;-7.81;100.00
5988;BME280;3021;51.000;6.980;2022-12-16T03:58:08;65441.63;;;-7.79;100.00
5988;BME280;3021;51.000;6.980;2022-12-16T04:00:33;65449.22;;;-7.77;100.00
5988;BME280;3021;51.000;6.980;2022-12-16T04:02:58;65448.66;;;-7.78;100.00
5988;BME280;3021;51.000;6.980;2022-12-16T04:05:24;65440.88;;;-7.83;100.00
5988;BME280;3021;51.000;6.980;2022-12-16T04:07:50;65435.38;;;-7.85;100.00
5988;BME280;3021;51.000;6.980;2022-12-16T04:10:15;65437.81;;;-7.81;100.00
5988;BME280;3021;51.000;6.980;2022-12-16T04:12:40;65444.66;;;-7.82;100.00
5988;BME280;3021;51.000;6.980;2022-12-16T04:15:24;65435.78;;;-7.87;100.00
5988;BME280;3021;51.000;6.980;2022-12-16T04:18:14;65435.59;;;-7.90;100.00
5988;BME280;3021;51.000;6.980;2022-12-16T04:20:59;65419.84;;;-8.02;100.00
5988;BME280;3021;51.000;6.980;2022-12-16T04:23:55;65422.50;;;-8.02;100.00
5988;BME280;3021;51.000;6.980;2022-12-16T04:26:40;65407.38;;;-8.13;100.00
5988;BME280;3021;51.000;6.980;2022-12-16T04:29:24;65389.38;;;-8.27;100.00
5988;BME280;3021;51.000;6.980;2022-12-16T04:31:50;65395.25;;;-8.26;100.00
5988;BME280;3021;51.000;6.980;2022-12-16T04:34:16;65376.09;;;-8.34;100.00
5988;BME280;3021;51.000;6.980;2022-12-16T04:37:01;65380.69;;;-8.37;100.00
5988;BME280;3021;51.000;6.980;2022-12-16T04:39:45;65375.22;;;-8.47;100.00
5988;BME280;3021;51.000;6.980;2022-12-16T04:42:30;65367.84;;;-8.54;100.00
5988;BME280;3021;51.000;6.980;2022-12-16T04:45:14;65362.34;;;-8.56;100.00
5988;BME280;3021;51.000;6.980;2022-12-16T04:47:57;65363.47;;;-8.55;100.00
5988;BME280;3021;51.000;6.980;2022-12-16T04:50:41;65358.38;;;-8.60;100.00
5988;BME280;3021;51.000;6.980;2022-12-16T04:53:26;65347.19;;;-8.68;100.00
5988;BME280;3021;51.000;6.980;2022-12-16T04:56:11;65339.81;;;-8.74;100.00
5988;BME280;3021;51.000;6.980;2022-12-16T04:58:54;65349.31;;;-8.75;100.00
5988;BME280;3021;51.000;6.980;2022-12-16T05:01:38;65338.13;;;-8.76;100.00
5988;BME280;3021;51.000;6.980;2022-12-16T05:04:22;65336.41;;;-8.77;100.00
5988;BME280;3021;51.000;6.980;2022-12-16T05:07:06;65334.53;;;-8.81;100.00
5988;BME280;3021;51.000;6.980;2022-12-16T05:09:50;65329.59;;;-8.83;100.00
5988;BME280;3021;51.000;6.980;2022-12-16T05:12:34;65337.97;;;-8.86;100.00
5988;BME280;3021;51.000;6.980;2022-12-16T05:15:18;65323.75;;;-8.91;100.00
5988;BME280;3021;51.000;6.980;2022-12-16T05:18:12;65322.44;;;-8.95;100.00
5988;BME280;3021;51.000;6.980;2022-12-16T05:20:58;65316.56;;;-8.95;100.00
5988;BME280;3021;51.000;6.980;2022-12-16T05:23:42;65322.06;;;-8.93;100.00
5988;BME280;3021;51.000;6.980;2022-12-16T05:26:26;65317.50;;;-8.97;100.00
5988;BME280;3021;51.000;6.980;2022-12-16T05:29:10;65316.94;;;-8.97;100.00
5988;BME280;3021;51.000;6.980;2022-12-16T05:31:53;65315.22;;;-8.99;100.00
5988;BME280;3021;51.000;6.980;2022-12-16T05:34:37;65316.94;;;-8.97;100.00
5988;BME280;3021;51.000;6.980;2022-12-16T05:37:21;65319.59;;;-8.97;100.00
5988;BME280;3021;51.000;6.980;2022-12-16T05:40:07;65318.47;;;-8.98;100.00
5988;BME280;3021;51.000;6.980;2022-12-16T05:42:52;65317.50;;;-8.97;100.00
5988;BME280;3021;51.000;6.980;2022-12-16T05:45:36;65316.38;;;-8.98;100.00
5988;BME280;3021;51.000;6.980;2022-12-16T05:48:20;65319.78;;;-8.95;100.00
5988;BME280;3021;51.000;6.980;2022-12-16T05:51:04;65319.97;;;-8.92;100.00
5988;BME280;3021;51.000;6.980;2022-12-16T05:53:48;65325.06;;;-8.88;100.00
5988;BME280;3021;51.000;6.980;2022-12-16T05:56:32;65331.31;;;-8.82;100.00
5988;BME280;3021;51.000;6.980;2022-12-16T05:59:15;65367.19;;;-8.78;100.00
5988;BME280;3021;51.000;6.980;2022-12-16T06:01:59;65335.09;;;-8.81;100.00
5988;BME280;3021;51.000;6.980;2022-12-16T06:04:43;65323.34;;;-8.89;100.00
5988;BME280;3021;51.000;6.980;2022-12-16T06:07:27;65319.78;;;-8.95;100.00
5988;BME280;3021;51.000;6.980;2022-12-16T06:10:11;65315.41;;;-8.96;100.00
5988;BME280;3021;51.000;6.980;2022-12-16T06:12:55;65319.22;;;-8.95;100.00
5988;BME280;3021;51.000;6.980;2022-12-16T06:15:39;65319.97;;;-8.92;100.00
5988;BME280;3021;51.000;6.980;2022-12-16T06:18:23;65319.41;;;-8.93;100.00
5988;BME280;3021;51.000;6.980;2022-12-16T06:21:21;65321.66;;;-8.91;100.00
5988;BME280;3021;51.000;6.980;2022-12-16T06:24:05;65319.97;;;-8.92;100.00
5988;BME280;3021;51.000;6.980;2022-12-16T06:26:52;65317.84;;;-8.92;100.00
5988;BME280;3021;51.000;6.980;2022-12-16T06:29:36;65330.78;;;-8.90;100.00
5988;BME280;3021;51.000;6.980;2022-12-16T06:32:20;65333.41;;;-8.82;100.00
5988;BME280;3021;51.000;6.980;2022-12-16T06:35:04;65326.75;;;-8.86;100.00
5988;BME280;3021;51.000;6.980;2022-12-16T06:37:48;65319.78;;;-8.95;100.00
5988;BME280;3021;51.000;6.980;2022-12-16T06:40:32;65309.16;;;-9.02;100.00
5988;BME280;3021;51.000;6.980;2022-12-16T06:43:16;65305.97;;;-9.02;100.00
5988;BME280;3021;51.000;6.980;2022-12-16T06:46:00;65312.97;;;-9.01;100.00
5988;BME280;3021;51.000;6.980;2022-12-16T06:48:44;65313.31;;;-8.96;100.00
5988;BME280;3021;51.000;6.980;2022-12-16T06:51:28;65317.47;;;-8.90;100.00
5988;BME280;3021;51.000;6.980;2022-12-16T06:54:12;65323.34;;;-8.89;100.00
5988;BME280;3021;51.000;6.980;2022-12-16T06:56:56;65324.88;;;-8.90;100.00
5988;BME280;3021;51.000;6.980;2022-12-16T06:59:40;65329.25;;;-8.89;100.00
5988;BME280;3021;51.000;6.980;2022-12-16T07:02:24;65323.53;;;-8.87;100.00
5988;BME280;3021;51.000;6.980;2022-12-16T07:05:08;65333.00;;;-8.80;100.00
5988;BME280;3021;51.000;6.980;2022-12-16T07:07:51;65326.19;;;-8.87;100.00
5988;BME280;3021;51.000;6.980;2022-12-16T07:10:36;65323.94;;;-8.89;100.00
5988;BME280;3021;51.000;6.980;2022-12-16T07:13:20;65330.00;;;-8.86;100.00
5988;BME280;3021;51.000;6.980;2022-12-16T07:16:04;65332.66;;;-8.86;100.00
5988;BME280;3021;51.000;6.980;2022-12-16T07:18:48;65330.00;;;-8.86;100.00
5988;BME280;3021;51.000;6.980;2022-12-16T07:21:32;65326.41;;;-8.91;100.00
5988;BME280;3021;51.000;6.980;2022-12-16T07:24:16;65325.06;;;-8.88;100.00
5988;BME280;3021;51.000;6.980;2022-12-16T07:26:59;65329.03;;;-8.84;100.00
5988;BME280;3021;51.000;6.980;2022-12-16T07:29:44;65327.72;;;-8.88;100.00
5988;BME280;3021;51.000;6.980;2022-12-16T07:32:28;65335.84;;;-8.78;100.00
5988;BME280;3021;51.000;6.980;2022-12-16T07:35:12;65340.94;;;-8.73;100.00
5988;BME280;3021;51.000;6.980;2022-12-16T07:37:56;65351.94;;;-8.68;100.00
5988;BME280;3021;51.000;6.980;2022-12-16T07:40:40;65368.25;;;-8.56;100.00
5988;BME280;3021;51.000;6.980;2022-12-16T07:43:24;65376.34;;;-8.46;100.00
5988;BME280;3021;51.000;6.980;2022-12-16T07:46:07;65386.56;;;-8.37;100.00
5988;BME280;3021;51.000;6.980;2022-12-16T07:48:52;65388.03;;;-8.30;100.00
5988;BME280;3021;51.000;6.980;2022-12-16T07:51:36;65393.72;;;-8.25;100.00
5988;BME280;3021;51.000;6.980;2022-12-16T07:54:19;65396.56;;;-8.23;100.00
5988;BME280;3021;51.000;6.980;2022-12-16T07:57:04;65388.03;;;-8.30;100.00
5988;BME280;3021;51.000;6.980;2022-12-16T07:59:47;65383.91;;;-8.37;100.00
5988;BME280;3021;51.000;6.980;2022-12-16T08:02:31;65385.03;;;-8.36;100.00
5988;BME280;3021;51.000;6.980;2022-12-16T08:05:15;65395.06;;;-8.29;100.00
5988;BME280;3021;51.000;6.980;2022-12-16T08:07:59;65393.38;;;-8.30;100.00
5988;BME280;3021;51.000;6.980;2022-12-16T08:10:43;65393.16;;;-8.26;100.00
5988;BME280;3021;51.000;6.980;2022-12-16T08:13:27;65411.34;;;-8.09;100.00
5988;BME280;3021;51.000;6.980;2022-12-16T08:16:11;65422.88;;;-7.96;100.00
5988;BME280;3021;51.000;6.980;2022-12-16T08:18:55;65443.16;;;-7.88;100.00
5988;BME280;3021;51.000;6.980;2022-12-16T08:21:39;65448.09;;;-7.78;100.00
5988;BME280;3021;51.000;6.980;2022-12-16T08:24:23;65456.41;;;-7.73;100.00
5988;BME280;3021;51.000;6.980;2022-12-16T08:27:07;65463.78;;;-7.59;100.00
5988;BME280;3021;51.000;6.980;2022-12-16T08:29:51;65468.69;;;-7.57;100.00
5988;BME280;3021;51.000;6.980;2022-12-16T08:32:35;65480.66;;;-7.47;100.00
5988;BME280;3021;51.000;6.980;2022-12-16T08:35:19;65493.16;;;-7.35;100.00
5988;BME280;3021;51.000;6.980;2022-12-16T08:38:03;65508.31;;;-7.24;100.00
5988;BME280;3021;51.000;6.980;2022-12-16T08:40:47;65507.72;;;-7.17;100.00
5988;BME280;3021;51.000;6.980;2022-12-16T08:43:33;65528.00;;;-7.01;100.00
5988;BME280;3021;51.000;6.980;2022-12-16T08:46:17;65537.09;;;-6.93;100.00
5988;BME280;3021;51.000;6.980;2022-12-16T08:49:01;65523.06;;;-7.03;100.00
5988;BME280;3021;51.000;6.980;2022-12-16T08:51:45;65506.41;;;-7.21;100.00
5988;BME280;3021;51.000;6.980;2022-12-16T08:54:29;65509.63;;;-7.20;100.00
5988;BME280;3021;51.000;6.980;2022-12-16T08:57:13;65520.78;;;-7.05;100.00
5988;BME280;3021;51.000;6.980;2022-12-16T08:59:57;65548.31;;;-6.85;100.00
5988;BME280;3021;51.000;6.980;2022-12-16T09:02:41;65583.00;;;-6.54;100.00
5988;BME280;3021;51.000;6.980;2022-12-16T09:05:25;65599.47;;;-6.39;100.00
5988;BME280;3021;51.000;6.980;2022-12-16T09:08:09;65655.56;;;-5.83;100.00
5988;BME280;3021;51.000;6.980;2022-12-16T09:10:52;65701.88;;;-5.39;100.00
5988;BME280;3021;51.000;6.980;2022-12-16T09:13:37;65736.44;;;-5.10;100.00
5988;BME280;3021;51.000;6.980;2022-12-16T09:16:21;65735.88;;;-5.11;100.00
5988;BME280;3021;51.000;6.980;2022-12-16T09:19:04;65716.34;;;-5.31;100.00
5988;BME280;3021;51.000;6.980;2022-12-16T09:21:49;65711.59;;;-5.38;100.00
5988;BME280;3021;51.000;6.980;2022-12-16T09:24:49;65703.41;;;-5.40;100.00
5988;BME280;3021;51.000;6.980;2022-12-16T09:27:33;65720.88;;;-5.27;100.00
5988;BME280;3021;51.000;6.980;2022-12-16T09:30:17;65760.75;;;-4.91;100.00
5988;BME280;3021;51.000;6.980;2022-12-16T09:33:01;65826.31;;;-4.31;100.00
5988;BME280;3021;51.000;6.980;2022-12-16T09:35:45;65897.59;;;-3.67;100.00
5988;BME280;3021;51.000;6.980;2022-12-16T09:38:29;65952.94;;;-3.17;100.00
5988;BME280;3021;51.000;6.980;2022-12-16T09:44:46;66138.34;;;-1.45;100.00
5988;BME280;3021;51.000;6.980;2022-12-16T09:47:39;66226.00;;;-0.64;100.00
5988;BME280;3021;51.000;6.980;2022-12-16T09:50:29;66457.72;;;1.42;100.00
5988;BME280;3021;51.000;6.980;2022-12-16T09:53:16;66639.56;;;3.05;100.00
5988;BME280;3021;51.000;6.980;2022-12-16T09:56:04;66789.81;;;4.45;100.00
5988;BME280;3021;51.000;6.980;2022-12-16T09:58:56;67009.16;;;6.44;100.00
5988;BME280;3021;51.000;6.980;2022-12-16T10:01:41;67182.56;;;7.99;100.00
5988;BME280;3021;51.000;6.980;2022-12-16T10:04:26;67190.06;;;8.05;100.00
5988;BME280;3021;51.000;6.980;2022-12-16T10:07:20;67266.06;;;8.71;100.00
5988;BME280;3021;51.000;6.980;2022-12-16T10:13:52;67488.53;;;10.71;82.86
5988;BME280;3021;51.000;6.980;2022-12-16T10:19:04;67618.59;;;11.87;74.30
5988;BME280;3021;51.000;6.980;2022-12-16T10:25:06;67607.63;;;11.78;67.22
5988;BME280;3021;51.000;6.980;2022-12-16T10:27:59;67453.28;;;10.40;71.76
5988;BME280;3021;51.000;6.980;2022-12-16T10:30:46;67271.81;;;8.76;73.37
5988;BME280;3021;51.000;6.980;2022-12-16T10:33:30;67280.50;;;8.84;76.72
5988;BME280;3021;51.000;6.980;2022-12-16T10:36:20;67239.09;;;8.49;76.86
5988;BME280;3021;51.000;6.980;2022-12-16T10:42:38;66806.31;;;4.57;100.00
5988;BME280;3021;51.000;6.980;2022-12-16T10:45:40;66485.97;;;4.57;100.00
5988;BME280;3021;51.000;6.980;2022-12-16T10:48:28;66367.19;;;0.61;100.00
5988;BME280;3021;51.000;6.980;2022-12-16T10:51:14;66303.06;;;0.03;100.00
5988;BME280;3021;51.000;6.980;2022-12-16T10:57:33;66214.56;;;-0.74;100.00
5988;BME280;3021;51.000;6.980;2022-12-16T11:00:45;66194.19;;;-0.97;100.00
5988;BME280;3021;51.000;6.980;2022-12-16T11:03:31;66166.50;;;-1.17;100.00
5988;BME280;3021;51.000;6.980;2022-12-16T11:06:19;66154.34;;;-1.31;100.00
5988;BME280;3021;51.000;6.980;2022-12-16T11:09:34;66128.44;;;-1.57;100.00
5988;BME280;3021;51.000;6.980;2022-12-16T11:15:26;66119.13;;;-1.67;100.00
5988;BME280;3021;51.000;6.980;2022-12-16T11:18:15;66111.63;;;-1.67;100.00
5988;BME280;3021;51.000;6.980;2022-12-16T11:21:20;66113.75;;;-1.67;100.00
5988;BME280;3021;51.000;6.980;2022-12-16T11:27:02;66072.44;;;-2.07;100.00
5988;BME280;3021;51.000;6.980;2022-12-16T11:29:50;66057.94;;;-2.15;100.00
5988;BME280;3021;51.000;6.980;2022-12-16T11:32:36;66057.94;;;-2.15;100.00
5988;BME280;3021;51.000;6.980;2022-12-16T11:35:25;66065.44;;;-2.16;100.00
5988;BME280;3021;51.000;6.980;2022-12-16T11:38:26;66062.16;;;-2.16;100.00
5988;BME280;3021;51.000;6.980;2022-12-16T11:41:29;66050.31;;;-2.24;100.00
5988;BME280;3021;51.000;6.980;2022-12-16T11:44:17;66053.59;;;-2.24;100.00
5988;BME280;3021;51.000;6.980;2022-12-16T11:47:06;66057.59;;;-2.20;100.00
5988;BME280;3021;51.000;6.980;2022-12-16T11:49:56;66059.47;;;-2.16;100.00
5988;BME280;3021;51.000;6.980;2022-12-16T11:52:41;66059.88;;;-2.18;100.00
5988;BME280;3021;51.000;6.980;2022-12-16T11:55:27;66057.19;;;-2.18;100.00
5988;BME280;3021;51.000;6.980;2022-12-16T11:58:20;66071.88;;;-2.08;100.00
5988;BME280;3021;51.000;6.980;2022-12-16T12:01:14;66072.44;;;-2.07;100.00
5988;BME280;3021;51.000;6.980;2022-12-16T12:04:01;66065.00;;;-2.14;100.00
5988;BME280;3021;51.000;6.980;2022-12-16T12:10:48;66071.47;;;-2.05;100.00
5988;BME280;3021;51.000;6.980;2022-12-16T12:17:23;66075.63;;;-1.99;100.00
5988;BME280;3021;51.000;6.980;2022-12-16T12:21:21;66085.16;;;-1.93;100.00
5988;BME280;3021;51.000;6.980;2022-12-16T12:26:56;66094.50;;;-1.82;100.00
5988;BME280;3021;51.000;6.980;2022-12-16T12:29:57;66106.16;;;-1.77;100.00
5988;BME280;3021;51.000;6.980;2022-12-16T12:45:03;66117.00;;;-1.67;100.00
5988;BME280;3021;51.000;6.980;2022-12-16T12:48:01;66125.75;;;-1.57;100.00
5988;BME280;3021;51.000;6.980;2022-12-16T12:50:59;66137.59;;;-1.48;100.00
5988;BME280;3021;51.000;6.980;2022-12-16T12:56:47;66140.78;;;-1.41;100.00
5988;BME280;3021;51.000;6.980;2022-12-16T12:59:50;66140.03;;;-1.44;100.00
5988;BME280;3021;51.000;6.980;2022-12-16T13:03:16;66142.16;;;-1.44;100.00
5988;BME280;3021;51.000;6.980;2022-12-16T13:06:03;66153.00;;;-1.34;100.00
5988;BME280;3021;51.000;6.980;2022-12-16T13:11:32;66154.34;;;-1.31;100.00
5988;BME280;3021;51.000;6.980;2022-12-16T13:17:19;66147.88;;;-1.39;100.00
5988;BME280;3021;51.000;6.980;2022-12-16T13:23:29;66160.06;;;-1.26;100.00
5988;BME280;3021;51.000;6.980;2022-12-16T13:26:15;66160.06;;;-1.26;100.00
5988;BME280;3021;51.000;6.980;2022-12-16T13:29:22;66161.59;;;-1.27;100.00
5988;BME280;3021;51.000;6.980;2022-12-16T13:32:21;66151.47;;;-1.33;100.00
5988;BME280;3021;51.000;6.980;2022-12-16T13:49:52;66106.16;;;-1.77;100.00
5988;BME280;3021;51.000;6.980;2022-12-16T13:55:34;66105.75;;;-1.75;100.00
5988;BME280;3021;51.000;6.980;2022-12-16T14:01:20;66090.72;;;-1.91;100.00
5988;BME280;3021;51.000;6.980;2022-12-16T14:04:08;66075.28;;;-2.04;100.00
5988;BME280;3021;51.000;6.980;2022-12-16T14:06:58;66080.44;;;-2.00;100.00
5988;BME280;3021;51.000;6.980;2022-12-16T14:09:47;66076.44;;;-2.03;100.00
5988;BME280;3021;51.000;6.980;2022-12-16T14:12:42;66071.47;;;-2.05;100.00
5988;BME280;3021;51.000;6.980;2022-12-16T14:15:35;66057.75;;;-2.18;100.00
5988;BME280;3021;51.000;6.980;2022-12-16T14:18:44;66056.22;;;-2.17;100.00
5988;BME280;3021;51.000;6.980;2022-12-16T14:21:40;66052.78;;;-2.20;100.00
5988;BME280;3021;51.000;6.980;2022-12-16T14:24:28;66053.59;;;-2.24;100.00
5988;BME280;3021;51.000;6.980;2022-12-16T14:27:15;66052.63;;;-2.22;100.00
5988;BME280;3021;51.000;6.980;2022-12-16T14:30:02;66045.94;;;-2.26;100.00
5988;BME280;3021;51.000;6.980;2022-12-16T14:32:46;66052.44;;;-2.25;100.00
5988;BME280;3021;51.000;6.980;2022-12-16T14:35:30;66042.91;;;-2.31;100.00
5988;BME280;3021;51.000;6.980;2022-12-16T14:41:12;66021.94;;;-2.48;100.00
5988;BME280;3021;51.000;6.980;2022-12-16T14:43:57;66024.63;;;-2.48;100.00
5988;BME280;3021;51.000;6.980;2022-12-16T14:46:41;66027.91;;;-2.47;100.00
5988;BME280;3021;51.000;6.980;2022-12-16T14:49:27;66037.44;;;-2.41;100.00
5988;BME280;3021;51.000;6.980;2022-12-16T14:52:24;66034.75;;;-2.41;100.00
5988;BME280;3021;51.000;6.980;2022-12-16T14:55:17;66030.91;;;-2.42;100.00
5988;BME280;3021;51.000;6.980;2022-12-16T15:00:51;66031.88;;;-2.44;100.00
5988;BME280;3021;51.000;6.980;2022-12-16T15:03:39;66037.44;;;-2.41;100.00
5988;BME280;3021;51.000;6.980;2022-12-16T15:06:43;66030.59;;;-2.47;100.00
5988;BME280;3021;51.000;6.980;2022-12-16T15:09:55;66026.75;;;-2.48;100.00
5988;BME280;3021;51.000;6.980;2022-12-16T15:12:42;66028.22;;;-2.42;100.00
5988;BME280;3021;51.000;6.980;2022-12-16T15:15:47;66045.44;;;-2.34;100.00
5988;BME280;3021;51.000;6.980;2022-12-16T15:18:42;66041.19;;;-2.33;100.00
5988;BME280;3021;51.000;6.980;2022-12-16T15:21:27;66050.00;;;-2.30;100.00
5988;BME280;3021;51.000;6.980;2022-12-16T15:24:15;66047.63;;;-2.24;100.00
5988;BME280;3021;51.000;6.980;2022-12-16T15:27:33;66063.47;;;-2.13;100.00
5988;BME280;3021;51.000;6.980;2022-12-16T15:30:34;66063.88;;;-2.15;100.00
5988;BME280;3021;51.000;6.980;2022-12-16T15:33:20;66068.63;;;-2.08;100.00
5988;BME280;3021;51.000;6.980;2022-12-16T15:36:05;66070.16;;;-2.09;100.00
5988;BME280;3021;51.000;6.980;2022-12-16T15:38:55;66069.19;;;-2.08;100.00
5988;BME280;3021;51.000;6.980;2022-12-16T15:41:46;66079.28;;;-2.01;100.00
5988;BME280;3021;51.000;6.980;2022-12-16T15:44:30;66079.88;;;-2.00;100.00
5988;BME280;3021;51.000;6.980;2022-12-16T15:47:35;66076.59;;;-2.01;100.00
5988;BME280;3021;51.000;6.980;2022-12-16T15:50:22;66083.28;;;-1.97;100.00
5988;BME280;3021;51.000;6.980;2022-12-16T15:53:32;66079.28;;;-2.01;100.00
5988;BME280;3021;51.000;6.980;2022-12-16T15:56:21;66070.88;;;-2.06;100.00
5988;BME280;3021;51.000;6.980;2022-12-16T16:01:56;66087.63;;;-1.88;100.00
5988;BME280;3021;51.000;6.980;2022-12-16T16:04:40;66099.31;;;-1.83;100.00
5988;BME280;3021;51.000;6.980;2022-12-16T16:07:24;66103.47;;;-1.77;100.00
5988;BME280;3021;51.000;6.980;2022-12-16T16:10:17;66106.72;;;-1.76;100.00
5988;BME280;3021;51.000;6.980;2022-12-16T16:13:02;66101.03;;;-1.81;100.00
5988;BME280;3021;51.000;6.980;2022-12-16T16:15:46;66104.19;;;-1.74;100.00
5988;BME280;3021;51.000;6.980;2022-12-16T16:18:30;66115.31;;;-1.68;100.00
5988;BME280;3021;51.000;6.980;2022-12-16T16:21:14;66119.28;;;-1.65;100.00
5988;BME280;3021;51.000;6.980;2022-12-16T16:23:58;66116.59;;;-1.65;100.00
5988;BME280;3021;51.000;6.980;2022-12-16T16:26:42;66119.47;;;-1.62;100.00
5988;BME280;3021;51.000;6.980;2022-12-16T16:29:26;66124.03;;;-1.58;100.00
5988;BME280;3021;51.000;6.980;2022-12-16T16:32:10;66129.00;;;-1.56;100.00